createdAt,value
2022-08-08T00:00:54.070Z,19.05
2022-08-08T00:02:42.934Z,19.32
2022-08-08T00:05:21.750Z,19.25
2022-08-08T00:08:16.915Z,19.31
2022-08-08T00:10:52.746Z,19.24
2022-08-08T00:14:17.527Z,19.31
2022-08-08T00:16:26.267Z,19.30
2022-08-08T00:19:03.099Z,19.40
2022-08-08T00:21:39.386Z,19.42
2022-08-08T00:24:19.298Z,19.46
2022-08-08T00:26:58.857Z,19.48
2022-08-08T00:29:44.215Z,19.48
2022-08-08T00:32:35.157Z,19.35
2022-08-08T00:35:28.345Z,19.45
2022-08-08T00:38:31.393Z,19.42
2022-08-08T00:41:55.338Z,19.37
2022-08-08T00:44:47.896Z,19.34
2022-08-08T00:48:05.360Z,19.36
2022-08-08T00:51:19.800Z,19.31
2022-08-08T00:54:34.251Z,19.07
2022-08-08T00:57:40.958Z,19.07
2022-08-08T01:00:19.398Z,19.10
2022-08-08T01:04:00.777Z,19.16
2022-08-08T01:06:57.347Z,19.15
2022-08-08T01:10:15.850Z,19.14
2022-08-08T01:13:44.015Z,19.08
2022-08-08T01:16:49.304Z,18.96
2022-08-08T01:20:18.543Z,18.88
2022-08-08T01:24:03.311Z,18.78
2022-08-08T01:26:24.022Z,18.67
2022-08-08T01:29:24.900Z,18.73
2022-08-08T01:32:44.008Z,18.75
2022-08-08T01:35:40.616Z,18.71
2022-08-08T01:39:05.623Z,18.70
2022-08-08T01:41:52.540Z,18.76
2022-08-08T01:44:38.920Z,18.73
2022-08-08T01:48:14.798Z,18.66
2022-08-08T01:50:21.122Z,18.68
2022-08-08T01:55:14.771Z,18.59
2022-08-08T01:56:30.052Z,18.66
2022-08-08T01:59:10.377Z,18.59
2022-08-08T02:02:05.391Z,18.56
2022-08-08T02:04:52.272Z,18.50
2022-08-08T02:07:27.874Z,18.46
2022-08-08T02:10:37.117Z,18.44
2022-08-08T02:13:52.544Z,18.34
2022-08-08T02:16:29.371Z,18.28
2022-08-08T02:19:26.995Z,18.27
2022-08-08T02:22:17.607Z,18.26
2022-08-08T02:24:51.992Z,18.19
2022-08-08T02:27:42.157Z,18.18
2022-08-08T02:30:24.873Z,18.12
2022-08-08T02:33:14.604Z,18.12
2022-08-08T02:36:03.517Z,18.12
2022-08-08T02:38:55.949Z,18.13
2022-08-08T02:42:10.570Z,18.15
2022-08-08T02:45:03.722Z,18.08
2022-08-08T02:48:10.785Z,18.13
2022-08-08T02:51:30.170Z,17.96
2022-08-08T02:54:41.295Z,17.97
2022-08-08T02:57:45.766Z,17.93
2022-08-08T03:00:50.664Z,17.90
2022-08-08T03:05:02.764Z,17.83
2022-08-08T03:07:21.291Z,17.75
2022-08-08T03:10:44.049Z,17.74
2022-08-08T03:15:57.088Z,17.75
2022-08-08T03:16:43.396Z,17.74
2022-08-08T03:19:25.531Z,17.71
2022-08-08T03:21:59.816Z,17.71
2022-08-08T03:24:31.823Z,17.70
2022-08-08T03:27:11.347Z,17.66
2022-08-08T03:29:56.088Z,17.68
2022-08-08T03:32:47.602Z,17.60
2022-08-08T03:35:30.192Z,17.44
2022-08-08T03:38:56.152Z,17.48
2022-08-08T03:40:56.903Z,17.42
2022-08-08T03:43:31.440Z,17.29
2022-08-08T03:46:08.865Z,17.42
2022-08-08T03:49:09.883Z,17.32
2022-08-08T03:51:40.460Z,17.31
2022-08-08T03:54:41.459Z,17.20
2022-08-08T03:58:33.740Z,17.15
2022-08-08T04:00:08.133Z,17.01
2022-08-08T04:02:54.870Z,16.93
2022-08-08T04:05:28.400Z,17.07
2022-08-08T04:08:06.214Z,17.03
2022-08-08T04:10:37.624Z,17.12
2022-08-08T04:13:18.101Z,17.15
2022-08-08T04:16:03.361Z,17.17
2022-08-08T04:18:44.886Z,17.20
2022-08-08T04:21:23.059Z,17.21
2022-08-08T04:24:11.560Z,17.16
2022-08-08T04:26:57.219Z,17.17
2022-08-08T04:29:33.201Z,17.17
2022-08-08T04:32:07.412Z,17.17
2022-08-08T04:34:55.257Z,17.14
2022-08-08T04:37:32.200Z,17.11
2022-08-08T04:40:10.525Z,17.15
2022-08-08T04:42:57.406Z,17.23
2022-08-08T04:45:47.989Z,17.26
2022-08-08T04:48:21.889Z,17.31
2022-08-08T04:50:51.438Z,17.28
2022-08-08T04:54:37.056Z,17.28
2022-08-08T04:56:17.146Z,17.13
2022-08-08T04:58:49.555Z,17.15
2022-08-08T05:01:22.003Z,17.20
2022-08-08T05:04:10.876Z,17.25
2022-08-08T05:06:43.772Z,17.24
2022-08-08T05:09:13.569Z,17.25
2022-08-08T05:11:47.740Z,17.23
2022-08-08T05:14:26.297Z,17.26
2022-08-08T05:17:08.801Z,17.33
2022-08-08T05:20:11.422Z,17.35
2022-08-08T05:22:35.921Z,17.21
2022-08-08T05:25:06.226Z,16.96
2022-08-08T05:27:44.179Z,16.91
2022-08-08T05:30:15.093Z,16.93
2022-08-08T05:32:50.234Z,16.96
2022-08-08T05:35:24.769Z,17.01
2022-08-08T05:38:04.708Z,16.91
2022-08-08T05:40:58.198Z,17.00
2022-08-08T05:44:02.181Z,17.07
2022-08-08T05:46:24.523Z,17.18
2022-08-08T05:48:55.760Z,17.22
2022-08-08T05:51:48.150Z,17.27
2022-08-08T05:54:27.001Z,17.19
2022-08-08T05:57:36.729Z,17.39
2022-08-08T06:00:22.872Z,17.43
2022-08-08T06:03:17.396Z,17.40
2022-08-08T06:06:01.183Z,17.22
2022-08-08T06:08:35.937Z,17.17
2022-08-08T06:11:10.955Z,17.09
2022-08-08T06:13:47.809Z,17.08
2022-08-08T06:16:24.998Z,17.07
2022-08-08T06:19:24.073Z,17.22
2022-08-08T06:21:57.280Z,17.10
2022-08-08T06:24:37.578Z,17.04
2022-08-08T06:27:12.389Z,17.28
2022-08-08T06:30:00.951Z,17.35
2022-08-08T06:32:47.844Z,17.56
2022-08-08T06:36:04.490Z,17.42
2022-08-08T06:38:14.545Z,17.69
2022-08-08T06:40:54.244Z,17.84
2022-08-08T06:43:34.435Z,17.97
2022-08-08T06:46:23.823Z,18.23
2022-08-08T06:48:54.812Z,18.42
2022-08-08T06:51:23.983Z,18.62
2022-08-08T06:54:03.214Z,18.83
2022-08-08T06:56:37.921Z,18.90
2022-08-08T06:59:09.965Z,19.12
2022-08-08T07:02:27.468Z,19.38
2022-08-08T07:04:51.263Z,19.62
2022-08-08T07:07:28.284Z,19.80
2022-08-08T07:10:08.252Z,20.02
2022-08-08T07:12:47.864Z,20.27
2022-08-08T07:16:03.635Z,20.58
2022-08-08T07:18:35.807Z,20.98
2022-08-08T07:21:09.976Z,21.33
2022-08-08T07:24:01.527Z,21.77
2022-08-08T07:26:43.078Z,22.29
2022-08-08T07:29:20.645Z,23.36
2022-08-08T07:32:08.562Z,24.05
2022-08-08T07:34:48.363Z,25.39
2022-08-08T07:37:27.985Z,26.93
2022-08-08T07:40:28.741Z,27.73
2022-08-08T07:43:02.400Z,29.95
2022-08-08T07:45:34.632Z,30.77
2022-08-08T07:48:20.614Z,32.13
2022-08-08T07:50:55.103Z,33.60
2022-08-08T07:54:01.870Z,34.28
2022-08-08T07:56:36.901Z,35.26
2022-08-08T07:59:14.744Z,36.07
2022-08-08T08:02:36.219Z,36.18
2022-08-08T08:04:52.104Z,36.73
2022-08-08T08:07:26.228Z,37.80
2022-08-08T08:10:05.100Z,37.53
2022-08-08T08:12:42.262Z,37.81
2022-08-08T08:15:21.690Z,38.14
2022-08-08T08:17:59.297Z,38.40
2022-08-08T08:20:30.988Z,39.12
2022-08-08T08:23:03.538Z,39.19
2022-08-08T08:25:42.792Z,40.19
2022-08-08T08:28:21.211Z,40.17
2022-08-08T08:30:56.350Z,39.78
2022-08-08T08:33:28.446Z,40.27
2022-08-08T08:36:19.663Z,41.15
2022-08-08T08:38:49.295Z,41.08
2022-08-08T08:41:23.834Z,42.24
2022-08-08T08:44:13.232Z,42.41
2022-08-08T08:46:45.631Z,41.52
2022-08-08T08:49:20.401Z,41.70
2022-08-08T08:51:58.077Z,42.45
2022-08-08T08:54:34.123Z,43.49
2022-08-08T08:57:15.797Z,44.26
2022-08-08T09:00:00.002Z,43.34
2022-08-08T09:02:41.220Z,43.92
2022-08-08T09:05:14.023Z,44.13
2022-08-08T09:08:18.402Z,43.48
2022-08-08T09:10:51.083Z,42.69
2022-08-08T09:13:23.790Z,42.99
2022-08-08T09:16:03.965Z,42.20
2022-08-08T09:18:39.378Z,43.55
2022-08-08T09:21:58.983Z,43.89
2022-08-08T09:23:58.654Z,44.82
2022-08-08T09:26:39.807Z,44.82
2022-08-08T09:29:22.611Z,45.29
2022-08-08T09:31:57.618Z,44.63
2022-08-08T09:34:37.798Z,45.18
2022-08-08T09:37:57.519Z,44.98
2022-08-08T09:40:10.839Z,45.17
2022-08-08T09:42:44.449Z,45.49
2022-08-08T09:45:55.343Z,45.80
2022-08-08T09:48:21.106Z,46.65
2022-08-08T09:50:55.042Z,44.76
2022-08-08T09:53:32.922Z,45.21
2022-08-08T09:56:21.708Z,45.16
2022-08-08T09:58:58.622Z,45.67
2022-08-08T10:01:59.711Z,45.17
2022-08-08T10:04:38.363Z,44.06
2022-08-08T10:07:15.910Z,44.60
2022-08-08T10:10:00.277Z,45.40
2022-08-08T10:12:52.961Z,45.97
2022-08-08T10:15:25.166Z,46.27
2022-08-08T10:18:09.071Z,45.36
2022-08-08T10:20:58.099Z,44.67
2022-08-08T10:23:45.842Z,44.26
2022-08-08T10:26:40.620Z,45.81
2022-08-08T10:29:21.089Z,44.29
2022-08-08T10:32:15.957Z,44.97
2022-08-08T10:34:58.490Z,43.43
2022-08-08T10:37:30.641Z,41.39
2022-08-08T10:40:06.919Z,41.14
2022-08-08T10:42:37.760Z,40.23
2022-08-08T10:45:16.071Z,39.30
2022-08-08T10:47:48.510Z,37.69
2022-08-08T10:50:25.035Z,38.68
2022-08-08T10:53:03.618Z,38.44
2022-08-08T10:55:46.515Z,39.48
2022-08-08T10:58:16.005Z,36.98
2022-08-08T11:00:53.352Z,36.01
2022-08-08T11:04:00.667Z,36.62
2022-08-08T11:06:34.269Z,36.04
2022-08-08T11:09:09.717Z,37.67
2022-08-08T11:12:06.555Z,36.15
2022-08-08T11:14:36.395Z,35.39
2022-08-08T11:17:06.752Z,37.04
2022-08-08T11:19:46.554Z,36.81
2022-08-08T11:22:26.884Z,38.23
2022-08-08T11:24:58.516Z,40.55
2022-08-08T11:27:37.311Z,39.91
2022-08-08T11:30:24.643Z,41.57
2022-08-08T11:32:58.440Z,42.61
2022-08-08T11:35:38.490Z,40.92
2022-08-08T11:38:39.585Z,40.46
2022-08-08T11:41:04.695Z,39.88
2022-08-08T11:43:39.233Z,38.94
2022-08-08T11:46:14.246Z,39.22
2022-08-08T11:48:48.804Z,37.29
2022-08-08T11:51:30.487Z,37.07
2022-08-08T11:54:27.430Z,37.88
2022-08-08T11:56:58.155Z,34.94
2022-08-08T12:00:00.613Z,33.92
2022-08-08T12:02:33.708Z,33.06
2022-08-08T12:05:04.169Z,33.11
2022-08-08T12:07:35.569Z,32.64
2022-08-08T12:10:12.487Z,32.14
2022-08-08T12:12:45.932Z,32.41
2022-08-08T12:15:29.486Z,32.87
2022-08-08T12:18:00.074Z,32.16
2022-08-08T12:20:38.902Z,31.53
2022-08-08T12:23:13.902Z,31.69
2022-08-08T12:25:55.163Z,31.41
2022-08-08T12:28:25.544Z,31.59
2022-08-08T12:31:07.122Z,31.48
2022-08-08T12:34:02.066Z,32.01
2022-08-08T12:36:40.690Z,31.94
2022-08-08T12:39:15.470Z,31.22
2022-08-08T12:42:01.604Z,31.13
2022-08-08T12:44:33.335Z,31.79
2022-08-08T12:47:08.130Z,31.82
2022-08-08T12:49:45.042Z,31.99
2022-08-08T12:52:28.716Z,31.91
2022-08-08T12:55:13.274Z,32.07
2022-08-08T12:57:49.802Z,32.06
2022-08-08T13:00:34.016Z,31.97
2022-08-08T13:03:09.170Z,31.64
2022-08-08T13:06:04.275Z,30.66
2022-08-08T13:08:33.282Z,30.45
2022-08-08T13:11:05.538Z,30.16
2022-08-08T13:13:37.655Z,30.77
2022-08-08T13:16:20.221Z,30.40
2022-08-08T13:18:57.590Z,30.86
2022-08-08T13:21:49.249Z,30.60
2022-08-08T13:24:38.531Z,30.10
2022-08-08T13:27:12.406Z,29.76
2022-08-08T13:29:50.780Z,29.89
2022-08-08T13:32:20.987Z,30.34
2022-08-08T13:34:55.610Z,30.59
2022-08-08T13:37:28.016Z,30.31
2022-08-08T13:40:17.557Z,30.75
2022-08-08T13:42:56.390Z,30.81
2022-08-08T13:45:26.521Z,30.52
2022-08-08T13:47:59.861Z,30.33
2022-08-08T13:50:43.189Z,30.34
2022-08-08T13:53:27.541Z,29.77
2022-08-08T13:56:01.396Z,30.15
2022-08-08T13:58:31.309Z,30.22
2022-08-08T14:01:13.771Z,30.62
2022-08-08T14:03:54.940Z,30.30
2022-08-08T14:06:34.126Z,30.39
2022-08-08T14:09:25.364Z,29.98
2022-08-08T14:11:54.409Z,30.08
2022-08-08T14:14:26.970Z,29.65
2022-08-08T14:16:57.455Z,30.12
2022-08-08T14:19:58.202Z,30.23
2022-08-08T14:22:27.312Z,30.30
2022-08-08T14:24:59.961Z,29.63
2022-08-08T14:27:30.374Z,29.89
2022-08-08T14:30:17.096Z,29.82
2022-08-08T14:32:53.229Z,29.57
2022-08-08T14:35:35.058Z,29.57
2022-08-08T14:38:33.093Z,29.91
2022-08-08T14:40:59.218Z,29.28
2022-08-08T14:44:01.748Z,29.22
2022-08-08T14:46:19.319Z,28.67
2022-08-08T14:49:02.662Z,28.90
2022-08-08T14:51:51.732Z,28.68
2022-08-08T14:54:29.267Z,28.77
2022-08-08T14:56:58.553Z,28.43
2022-08-08T14:59:44.413Z,28.55
2022-08-08T15:02:31.237Z,28.53
2022-08-08T15:05:10.656Z,28.47
2022-08-08T15:07:41.372Z,28.71
2022-08-08T15:10:13.147Z,28.47
2022-08-08T15:12:42.120Z,28.61
2022-08-08T15:15:11.701Z,28.78
2022-08-08T15:17:49.547Z,28.76
2022-08-08T15:20:19.655Z,28.79
2022-08-08T15:22:48.659Z,29.13
2022-08-08T15:25:21.152Z,29.40
2022-08-08T15:28:32.561Z,29.51
2022-08-08T15:30:48.719Z,29.80
2022-08-08T15:33:20.915Z,29.68
2022-08-08T15:36:03.750Z,29.75
2022-08-08T15:38:32.300Z,28.99
2022-08-08T15:41:02.439Z,28.71
2022-08-08T15:43:35.644Z,28.85
2022-08-08T15:46:05.309Z,29.07
2022-08-08T15:48:33.803Z,29.07
2022-08-08T15:51:07.273Z,28.86
2022-08-08T15:53:49.100Z,28.76
2022-08-08T15:56:20.430Z,28.93
2022-08-08T15:58:50.238Z,28.63
2022-08-08T16:01:20.902Z,28.47
2022-08-08T16:03:51.903Z,28.70
2022-08-08T16:06:27.665Z,28.75
2022-08-08T16:09:02.238Z,28.16
2022-08-08T16:13:09.457Z,28.30
2022-08-08T16:14:37.831Z,28.12
2022-08-08T16:17:06.819Z,28.39
2022-08-08T16:19:57.161Z,28.25
2022-08-08T16:22:38.981Z,28.21
2022-08-08T16:25:11.460Z,27.82
2022-08-08T16:27:45.447Z,27.77
2022-08-08T16:30:36.200Z,27.68
2022-08-08T16:33:05.788Z,27.63
2022-08-08T16:35:34.721Z,27.52
2022-08-08T16:38:03.209Z,27.20
2022-08-08T16:40:32.829Z,27.29
2022-08-08T16:43:03.073Z,27.18
2022-08-08T16:46:44.378Z,27.55
2022-08-08T16:48:20.689Z,27.39
2022-08-08T16:50:52.585Z,27.03
2022-08-08T16:55:03.982Z,27.00
2022-08-08T16:56:14.071Z,26.94
2022-08-08T16:58:45.892Z,27.21
2022-08-08T17:01:17.982Z,27.09
2022-08-08T17:03:58.511Z,27.23
2022-08-08T17:06:36.465Z,27.09
2022-08-08T17:09:07.132Z,27.08
2022-08-08T17:11:50.861Z,27.10
2022-08-08T17:14:27.624Z,27.31
2022-08-08T17:17:03.726Z,27.45
2022-08-08T17:19:40.862Z,27.52
2022-08-08T17:22:10.423Z,27.49
2022-08-08T17:24:39.304Z,27.08
2022-08-08T17:27:08.350Z,27.24
2022-08-08T17:29:43.642Z,27.24
2022-08-08T17:32:29.073Z,27.33
2022-08-08T17:35:54.526Z,27.40
2022-08-08T17:37:53.345Z,27.42
2022-08-08T17:40:22.740Z,27.26
2022-08-08T17:42:52.253Z,27.02
2022-08-08T17:45:23.958Z,26.85
2022-08-08T17:47:54.862Z,26.89
2022-08-08T17:50:25.007Z,26.91
2022-08-08T17:52:54.096Z,26.92
2022-08-08T17:56:05.012Z,26.79
2022-08-08T17:58:14.949Z,26.65
2022-08-08T18:00:47.414Z,26.55
2022-08-08T18:03:25.988Z,26.31
2022-08-08T18:05:54.607Z,25.87
2022-08-08T18:08:37.536Z,25.67
2022-08-08T18:11:15.504Z,25.85
2022-08-08T18:13:47.162Z,25.72
2022-08-08T18:16:22.916Z,25.49
2022-08-08T18:18:55.978Z,25.69
2022-08-08T18:22:00.430Z,25.49
2022-08-08T18:24:19.569Z,25.36
2022-08-08T18:26:54.828Z,25.11
2022-08-08T18:29:33.868Z,25.14
2022-08-08T18:32:06.819Z,25.16
2022-08-08T18:34:36.439Z,25.31
2022-08-08T18:37:08.433Z,25.16
2022-08-08T18:39:41.178Z,24.85
2022-08-08T18:42:15.861Z,24.88
2022-08-08T18:44:55.498Z,24.73
2022-08-08T18:47:27.487Z,24.49
2022-08-08T18:50:00.272Z,24.23
2022-08-08T18:52:30.347Z,24.13
2022-08-08T18:55:10.654Z,24.08
2022-08-08T18:57:44.526Z,23.92
2022-08-08T19:00:19.507Z,23.88
2022-08-08T19:02:55.930Z,23.69
2022-08-08T19:05:32.144Z,23.59
2022-08-08T19:08:25.339Z,23.45
2022-08-08T19:10:59.242Z,23.44
2022-08-08T19:13:38.497Z,23.41
2022-08-08T19:16:19.468Z,23.32
2022-08-08T19:19:01.924Z,23.27
2022-08-08T19:21:33.348Z,23.15
2022-08-08T19:24:39.147Z,23.11
2022-08-08T19:27:05.914Z,23.05
2022-08-08T19:29:40.687Z,22.91
2022-08-08T19:32:12.996Z,22.83
2022-08-08T19:34:51.488Z,22.73
2022-08-08T19:37:43.010Z,22.65
2022-08-08T19:40:16.144Z,22.51
2022-08-08T19:42:45.652Z,22.42
2022-08-08T19:45:59.958Z,22.36
2022-08-08T19:48:03.609Z,22.20
2022-08-08T19:50:34.421Z,22.24
2022-08-08T19:53:02.907Z,22.20
2022-08-08T19:55:51.626Z,22.11
2022-08-08T19:58:20.231Z,22.09
2022-08-08T20:00:53.162Z,22.05
2022-08-08T20:04:00.880Z,21.97
2022-08-08T20:06:16.401Z,21.82
2022-08-08T20:08:48.271Z,21.64
2022-08-08T20:11:18.775Z,21.60
2022-08-08T20:14:34.698Z,21.77
2022-08-08T20:16:40.389Z,21.68
2022-08-08T20:19:09.594Z,21.61
2022-08-08T20:21:40.294Z,21.57
2022-08-08T20:24:09.155Z,21.40
2022-08-08T20:26:41.590Z,21.13
2022-08-08T20:29:15.544Z,20.96
2022-08-08T20:32:02.725Z,21.35
2022-08-08T20:34:33.017Z,21.23
2022-08-08T20:37:07.413Z,21.23
2022-08-08T20:39:41.274Z,21.22
2022-08-08T20:42:23.663Z,21.20
2022-08-08T20:44:57.844Z,21.21
2022-08-08T20:47:26.842Z,21.13
2022-08-08T20:50:06.253Z,21.00
2022-08-08T20:52:40.879Z,21.00
2022-08-08T20:55:25.562Z,21.01
2022-08-08T20:57:57.965Z,20.92
2022-08-08T21:00:26.792Z,20.88
2022-08-08T21:02:55.597Z,20.89
2022-08-08T21:05:24.250Z,20.80
2022-08-08T21:08:33.575Z,20.76
2022-08-08T21:10:50.898Z,20.77
2022-08-08T21:13:19.426Z,20.82
2022-08-08T21:16:05.809Z,20.77
2022-08-08T21:18:36.551Z,20.67
2022-08-08T21:21:20.759Z,20.66
2022-08-08T21:24:13.027Z,20.56
2022-08-08T21:26:54.357Z,20.29
2022-08-08T21:30:05.389Z,20.16
2022-08-08T21:32:14.108Z,20.25
2022-08-08T21:34:49.690Z,20.39
2022-08-08T21:37:19.144Z,20.06
2022-08-08T21:39:56.815Z,20.31
2022-08-08T21:42:25.774Z,20.16
2022-08-08T21:44:58.868Z,20.26
2022-08-08T21:48:07.426Z,20.15
2022-08-08T21:50:18.607Z,20.16
2022-08-08T21:54:33.711Z,20.07
2022-08-08T21:56:20.043Z,20.15
2022-08-08T21:58:32.194Z,19.94
2022-08-08T22:01:06.113Z,19.91
2022-08-08T22:03:53.307Z,19.85
2022-08-08T22:06:30.998Z,19.61
2022-08-08T22:09:02.729Z,19.69
2022-08-08T22:11:59.465Z,19.55
2022-08-08T22:14:28.983Z,19.78
2022-08-08T22:17:01.085Z,19.80
2022-08-08T22:20:11.477Z,19.78
2022-08-08T22:22:19.875Z,19.51
2022-08-08T22:24:57.386Z,19.78
2022-08-08T22:28:00.526Z,19.84
2022-08-08T22:30:16.323Z,19.49
2022-08-08T22:32:58.430Z,19.79
2022-08-08T22:36:04.270Z,19.69
2022-08-08T22:38:17.640Z,19.58
2022-08-08T22:40:48.207Z,19.50
2022-08-08T22:43:19.596Z,19.63
2022-08-08T22:45:52.570Z,19.39
2022-08-08T22:48:22.527Z,19.24
2022-08-08T22:50:53.531Z,19.64
2022-08-08T22:54:32.963Z,19.60
2022-08-08T22:56:11.585Z,19.51
2022-08-08T22:58:44.127Z,19.37
2022-08-08T23:02:02.215Z,19.42
2022-08-08T23:04:08.584Z,18.98
2022-08-08T23:06:40.546Z,19.00
2022-08-08T23:09:10.580Z,19.19
2022-08-08T23:12:28.731Z,19.00
2022-08-08T23:14:29.120Z,19.18
2022-08-08T23:16:59.626Z,19.10
2022-08-08T23:19:31.093Z,18.81
2022-08-08T23:22:04.107Z,18.92
2022-08-08T23:24:36.584Z,18.69
2022-08-08T23:27:06.175Z,18.97
2022-08-08T23:29:36.867Z,18.92
2022-08-08T23:32:06.714Z,19.01
2022-08-08T23:34:40.224Z,18.65
2022-08-08T23:37:27.190Z,18.75
2022-08-08T23:40:15.782Z,18.69
2022-08-08T23:42:45.173Z,18.85
2022-08-08T23:45:16.477Z,19.06
2022-08-08T23:49:07.763Z,18.95
2022-08-08T23:50:33.999Z,18.91
2022-08-08T23:53:03.533Z,18.80
2022-08-08T23:55:38.257Z,19.04
2022-08-08T23:58:37.866Z,19.03
